Glacier Park International Airport
KGPI : now visible

Airfield :











YOU CAN JOIN US ON...

 
LOGIN :

Register | Disclaimer

   EN    FR    IT 

 









Legend :    VFR   Marginal VFR   IFR   Intensive IFR   Very Intensive IFR
Visi :
Ceiling :
>= 8 km
>= 3000ft
5 to 8 km
1000 to 3000 ft
1500m to 5 km
500 to 1000 ft
800 to 1500m
200 to 500 ft
< 800m
< 200 ft
Symbols :   Thunderstorms  Fog  Heavy snow  Heavy precipitations  Wind > 20 kt






- Airport Elevation : 2977 ft
- IATA code : FCA


KGPI - Glacier Park International

CURRENT METAR :
  • 081955Z 14009KT 10SM OVC070 21/07 A3002 RMK AO2 SLP164 T02060072

EXPIRED METARs :
  • 081855Z 14011KT 10SM BKN070 OVC110 19/08 A3004 RMK AO2 SLP168 T01940078
  • 081755Z 15009KT 10SM OVC070 17/09 A3006 RMK AO2 SLP179 T01670089 10172 20050 58011

TAF KGPI
Valid from the 08 at 18:00 until the 09 at 18:00 UTC


081723Z 0818/0918 19003KT P6SM OVC070
FM082000 22014G22KT P6SM VCSH OVC070
FM082300 26015G23KT P6SM BKN100
FM090300 34006KT P6SM FEW250
KZLC FIR / North America



MET'MAP, your aeronautical weather chart ! - Copyright ORBIFLY December 2007 - Disclaimer

ORBIFLY MET'MAP TEAM :

Programming & Development : Alexandra Zaïnal
Concept & original design : Baudouin d'Aumeries
Assistance for programming : Marc-Olivier Méhu
Technical & hardware support : Manuel Goepfert

Contact : metmap@orbifly.com




SOURCES & CREDITS :

   NOAA       Earth
Advisory